Time;durP1;ratioP1;P1;durP2;ratioP2;P2;SDS_P1;SDS_P2;PMS_P1;PMS_P2;Temp;Humidity;BMP_temperature;BMP_pressure;BME280_temperature;BME280_humidity;BME280_pressure;Samples;Min_cycle;Max_cycle;Signal;HPM_P1;HPM_P2
2022/01/11 00:00:45;;;;;;;;;84.50;64.50;2.60;93.50;;;;;;5035742;28;8754;-62
2022/01/11 00:03:12;;;;;;;;;89.25;67.75;2.90;92.70;;;;;;5034911;28;8789;-62
2022/01/11 00:06:01;;;;;;;;;84.25;67.00;3.10;91.60;;;;;;5035121;28;8777;-62
2022/01/11 00:08:31;;;;;;;;;76.50;60.75;2.80;92.50;;;;;;5035996;28;8890;-62
2022/01/11 00:11:04;;;;;;;;;81.25;63.00;2.70;93.60;;;;;;5035725;28;9439;-62
2022/01/11 00:13:39;;;;;;;;;77.00;61.00;2.90;91.60;;;;;;5054744;28;9521;-63
2022/01/11 00:16:06;;;;;;;;;77.25;60.75;2.60;93.30;;;;;;5055393;28;8775;-62
2022/01/11 00:18:32;;;;;;;;;87.00;66.50;2.50;94.20;;;;;;5055262;28;8940;-62
2022/01/11 00:20:58;;;;;;;;;77.50;56.00;2.40;95.10;;;;;;5055133;28;8787;-63
2022/01/11 00:25:52;;;;;;;;;74.25;57.75;2.80;92.90;;;;;;5055364;28;8889;-63
2022/01/11 00:28:20;;;;;;;;;84.25;64.25;3.20;91.70;;;;;;5053176;28;8960;-63
2022/01/11 00:30:47;;;;;;;;;75.50;60.50;3.40;90.20;;;;;;5055291;28;8767;-63
2022/01/11 00:33:22;;;;;;;;;75.50;59.50;3.30;88.70;;;;;;5054960;28;8810;-63
2022/01/11 00:35:59;;;;;;;;;80.50;64.25;3.40;88.40;;;;;;5054859;28;9445;-63
2022/01/11 00:38:31;;;;;;;;;84.25;64.00;3.40;89.60;;;;;;5055126;28;8825;-66
2022/01/11 00:41:00;;;;;;;;;83.25;65.25;4.00;84.80;;;;;;5055098;28;8850;-62
2022/01/11 00:43:28;;;;;;;;;78.75;63.50;4.10;83.00;;;;;;5055060;28;8771;-63
2022/01/11 00:45:56;;;;;;;;;86.50;66.25;4.30;81.80;;;;;;5055039;28;8775;-63
2022/01/11 00:48:22;;;;;;;;;79.00;62.00;3.80;83.40;;;;;;5054729;28;8768;-63
2022/01/11 00:50:49;;;;;;;;;77.00;61.25;3.60;86.40;;;;;;5054985;28;8770;-63
2022/01/11 00:53:15;;;;;;;;;89.00;68.00;3.50;87.00;;;;;;5054805;28;8799;-63
2022/01/11 00:55:42;;;;;;;;;74.00;62.00;3.50;88.10;;;;;;5054637;28;8782;-63
2022/01/11 00:58:08;;;;;;;;;74.50;59.25;3.30;89.10;;;;;;5054576;28;8755;-64
2022/01/11 01:00:35;;;;;;;;;82.75;63.25;3.10;90.60;;;;;;5054565;28;8797;-63
2022/01/11 01:03:02;;;;;;;;;85.25;66.00;3.20;91.00;;;;;;5054467;28;8756;-63
2022/01/11 01:05:28;;;;;;;;;78.50;62.50;3.40;90.30;;;;;;5054511;28;8874;-63
2022/01/11 01:07:54;;;;;;;;;79.25;61.75;2.90;91.90;;;;;;5054738;28;8818;-63
2022/01/11 01:10:29;;;;;;;;;74.50;58.25;3.00;92.70;;;;;;5054423;28;8783;-64
2022/01/11 01:12:57;;;;;;;;;77.75;61.25;3.20;91.70;;;;;;5054358;28;8827;-64
2022/01/11 01:15:24;;;;;;;;;75.75;58.50;3.70;89.20;;;;;;5054348;28;8779;-63
2022/01/11 01:17:52;;;;;;;;;73.75;60.50;3.40;89.50;;;;;;5053257;28;8801;-63
2022/01/11 01:20:18;;;;;;;;;82.50;62.25;3.10;91.90;;;;;;5054339;28;8840;-63
2022/01/11 01:22:44;;;;;;;;;82.50;63.00;3.30;91.00;;;;;;5053203;28;8787;-63
2022/01/11 01:25:10;;;;;;;;;75.50;58.25;3.00;92.30;;;;;;5054247;28;9502;-63
2022/01/11 01:27:36;;;;;;;;;80.25;61.00;2.80;93.80;;;;;;5054258;28;8775;-63
2022/01/11 01:30:05;;;;;;;;;67.25;55.00;3.10;92.40;;;;;;5054194;28;9514;-63
2022/01/11 01:32:31;;;;;;;;;80.50;64.00;2.90;93.00;;;;;;5054109;28;8814;-63
2022/01/11 01:35:01;;;;;;;;;80.25;61.25;3.30;92.50;;;;;;5054441;28;8763;-63
2022/01/11 01:37:27;;;;;;;;;84.75;64.50;3.80;89.80;;;;;;5054325;28;9540;-63
2022/01/11 01:39:53;;;;;;;;;83.00;65.50;4.10;85.50;;;;;;5054417;28;8760;-63
2022/01/11 01:42:25;;;;;;;;;83.75;62.25;4.00;85.40;;;;;;5054352;28;8789;-64
2022/01/11 01:44:51;;;;;;;;;78.50;63.25;4.20;84.40;;;;;;5053311;28;8786;-63
2022/01/11 01:47:17;;;;;;;;;73.25;60.50;4.50;81.90;;;;;;5057145;28;8783;-64
2022/01/11 01:49:43;;;;;;;;;69.75;55.50;4.70;79.80;;;;;;5058372;28;8763;-63
2022/01/11 01:52:09;;;;;;;;;68.00;53.25;4.60;80.40;;;;;;5058031;28;8787;-63
2022/01/11 01:54:35;;;;;;;;;80.50;63.50;4.50;80.00;;;;;;5058238;28;8771;-63
2022/01/11 01:57:01;;;;;;;;;71.75;57.25;4.50;80.90;;;;;;5057941;28;8836;-63
2022/01/11 01:59:28;;;;;;;;;77.25;60.75;4.90;78.40;;;;;;5058215;28;8778;-63
2022/01/11 02:01:54;;;;;;;;;72.75;58.50;4.60;77.70;;;;;;5057853;28;8788;-63
2022/01/11 02:04:20;;;;;;;;;66.25;55.50;4.10;82.20;;;;;;5057859;28;8791;-63
2022/01/11 02:06:46;;;;;;;;;73.25;59.00;3.90;85.80;;;;;;5057865;28;8767;-65
2022/01/11 02:09:17;;;;;;;;;74.75;58.00;4.00;84.90;;;;;;5058045;28;8778;-64
2022/01/11 02:11:43;;;;;;;;;74.25;60.25;3.80;86.50;;;;;;5057941;28;8903;-65
2022/01/11 02:14:10;;;;;;;;;73.75;57.50;3.90;85.20;;;;;;5057524;28;8838;-65
2022/01/11 02:16:36;;;;;;;;;69.50;55.75;3.70;87.00;;;;;;5057847;28;8759;-65
2022/01/11 02:19:03;;;;;;;;;76.25;59.75;3.60;88.10;;;;;;5057542;28;8767;-65
2022/01/11 02:21:29;;;;;;;;;77.75;59.25;3.80;87.10;;;;;;5057718;28;8810;-64
2022/01/11 02:23:57;;;;;;;;;75.50;58.25;4.10;84.50;;;;;;5057401;28;8902;-65
2022/01/11 02:26:23;;;;;;;;;72.50;59.50;4.20;82.10;;;;;;5057711;28;8771;-65
2022/01/11 02:28:50;;;;;;;;;76.00;61.25;4.30;82.10;;;;;;5057345;28;8791;-65
2022/01/11 02:31:16;;;;;;;;;73.75;60.50;4.50;80.10;;;;;;5057620;28;8832;-65
2022/01/11 02:33:49;;;;;;;;;64.00;51.75;4.40;80.00;;;;;;5057141;28;8831;-64
2022/01/11 02:36:22;;;;;;;;;72.50;56.00;4.60;78.90;;;;;;5057543;28;8767;-65
2022/01/11 02:38:50;;;;;;;;;67.25;54.25;4.60;77.60;;;;;;5057514;28;8811;-65
2022/01/11 02:41:16;;;;;;;;;63.25;51.50;4.60;78.80;;;;;;5057432;28;9495;-65
2022/01/11 02:43:43;;;;;;;;;66.00;55.00;4.80;77.00;;;;;;5057127;28;8775;-65
2022/01/11 02:46:10;;;;;;;;;67.00;55.00;4.70;77.10;;;;;;5057048;28;8775;-65
2022/01/11 02:48:37;;;;;;;;;70.00;55.25;4.80;76.70;;;;;;5057005;28;8860;-65
2022/01/11 02:51:04;;;;;;;;;63.75;52.75;4.90;75.60;;;;;;5057203;28;9530;-65
2022/01/11 02:53:30;;;;;;;;;63.75;49.50;5.20;73.80;;;;;;5056790;28;8807;-65
2022/01/11 02:55:57;;;;;;;;;59.75;48.50;4.90;75.60;;;;;;5057118;28;8755;-65
2022/01/11 02:58:23;;;;;;;;;62.75;51.50;4.70;76.30;;;;;;5056109;28;8763;-65
2022/01/11 03:00:49;;;;;;;;;58.50;45.50;4.60;77.50;;;;;;5056857;28;8755;-63
2022/01/11 03:03:23;;;;;;;;;64.25;51.75;4.80;76.50;;;;;;5056710;28;8763;-62
2022/01/11 03:05:56;;;;;;;;;70.75;54.50;4.70;76.30;;;;;;5056712;28;8801;-65
2022/01/11 03:08:25;;;;;;;;;65.00;52.25;4.60;76.80;;;;;;5056981;28;8941;-63
2022/01/11 03:10:51;;;;;;;;;60.50;48.25;4.60;77.90;;;;;;5056543;28;8801;-63
2022/01/11 03:13:18;;;;;;;;;58.75;47.50;4.70;76.70;;;;;;5056769;28;8807;-65
2022/01/11 03:15:46;;;;;;;;;61.00;49.00;4.20;79.40;;;;;;5056517;28;8759;-65
2022/01/11 03:18:12;;;;;;;;;55.50;43.75;4.30;79.00;;;;;;5056715;28;8759;-62
2022/01/11 03:20:40;;;;;;;;;62.25;50.00;4.60;77.40;;;;;;5056444;28;8779;-65
2022/01/11 03:23:07;;;;;;;;;62.50;50.00;4.50;77.90;;;;;;5056589;28;8840;-63
2022/01/11 03:25:34;;;;;;;;;66.50;52.00;4.70;76.30;;;;;;5056582;28;8763;-64
2022/01/11 03:28:00;;;;;;;;;61.25;49.75;4.40;77.40;;;;;;5056045;28;8823;-65
2022/01/11 03:30:26;;;;;;;;;64.75;51.50;4.30;77.40;;;;;;5056554;28;9374;-65
2022/01/11 03:32:52;;;;;;;;;68.00;53.00;4.20;79.80;;;;;;5056094;28;8799;-63
2022/01/11 03:35:18;;;;;;;;;54.25;46.50;4.60;76.50;;;;;;5056301;28;8783;-65
2022/01/11 03:37:46;;;;;;;;;51.50;47.50;4.70;75.70;;;;;;5056182;28;8813;-65
2022/01/11 03:40:15;;;;;;;;;52.50;45.00;4.80;74.40;;;;;;5056080;28;8739;-65
2022/01/11 03:42:42;;;;;;;;;64.75;53.75;5.00;73.40;;;;;;5055942;28;8798;-65
2022/01/11 03:45:10;;;;;;;;;67.25;53.00;4.90;73.50;;;;;;5055928;28;8889;-64
2022/01/11 03:47:36;;;;;;;;;65.50;50.25;4.90;72.70;;;;;;5056089;28;9433;-65
2022/01/11 03:50:07;;;;;;;;;66.75;51.25;5.20;71.60;;;;;;5056132;28;8927;-65
2022/01/11 03:52:32;;;;;;;;;65.00;52.75;5.20;71.20;;;;;;5056017;28;8802;-65
2022/01/11 03:57:29;;;;;;;;;64.75;51.00;5.30;70.30;;;;;;5056002;28;8767;-64
2022/01/11 03:59:56;;;;;;;;;64.50;48.75;4.90;72.20;;;;;;5055663;28;8763;-65
2022/01/11 04:02:22;;;;;;;;;63.25;50.50;5.00;72.40;;;;;;5055832;28;8778;-65
2022/01/11 04:04:52;;;;;;;;;62.25;50.75;4.60;74.10;;;;;;5055577;28;8794;-65
2022/01/11 04:07:25;;;;;;;;;57.25;47.00;4.20;76.50;;;;;;5055544;28;8811;-65
2022/01/11 04:09:52;;;;;;;;;62.00;49.00;4.20;77.40;;;;;;5054468;28;8867;-65
2022/01/11 04:12:18;;;;;;;;;64.25;51.75;4.10;79.10;;;;;;5055549;28;9453;-65
2022/01/11 04:14:45;;;;;;;;;63.00;49.00;3.90;79.50;;;;;;5055346;28;8770;-65
2022/01/11 04:17:11;;;;;;;;;60.25;49.00;3.90;80.50;;;;;;5055319;28;8775;-65
2022/01/11 04:19:37;;;;;;;;;60.50;49.50;4.40;77.90;;;;;;5055320;28;8763;-64
2022/01/11 04:22:04;;;;;;;;;61.25;49.00;4.10;80.00;;;;;;5055244;28;8779;-65
2022/01/11 04:24:29;;;;;;;;;58.50;49.25;4.40;77.40;;;;;;5055276;28;8913;-64
2022/01/11 04:26:55;;;;;;;;;56.00;44.75;4.60;76.80;;;;;;5055167;28;8874;-65
2022/01/11 04:29:21;;;;;;;;;45.25;37.50;4.80;75.20;;;;;;5055054;28;8814;-64
2022/01/11 04:31:48;;;;;;;;;67.25;50.50;4.80;74.50;;;;;;5054984;28;9413;-64
2022/01/11 04:34:13;;;;;;;;;59.75;49.00;4.90;73.90;;;;;;5054947;28;9417;-64
2022/01/11 04:36:40;;;;;;;;;64.25;52.25;5.20;72.90;;;;;;5055013;28;8787;-65
2022/01/11 04:39:11;;;;;;;;;46.50;41.25;5.00;73.10;;;;;;5055398;28;8825;-64
2022/01/11 04:41:37;;;;;;;;;57.00;47.75;4.70;74.90;;;;;;5054990;28;8771;-65
2022/01/11 04:44:05;;;;;;;;;60.75;49.75;4.90;74.40;;;;;;5054849;28;8848;-63
2022/01/11 04:46:30;;;;;;;;;64.25;53.25;4.80;75.00;;;;;;5055054;28;8786;-64
2022/01/11 04:48:56;;;;;;;;;65.50;52.25;4.90;74.60;;;;;;5054809;28;8824;-64
2022/01/11 04:51:24;;;;;;;;;71.00;56.00;4.90;74.10;;;;;;5054755;28;8774;-65
2022/01/11 04:53:51;;;;;;;;;67.50;52.75;4.70;75.00;;;;;;5054596;28;8949;-65
2022/01/11 04:56:16;;;;;;;;;60.50;49.50;4.90;74.60;;;;;;5054930;28;8763;-64
2022/01/11 04:58:43;;;;;;;;;66.75;52.50;5.20;73.20;;;;;;5054833;28;8777;-65
2022/01/11 05:01:10;;;;;;;;;65.50;54.00;5.10;72.80;;;;;;5054502;28;8914;-65
2022/01/11 05:03:35;;;;;;;;;70.25;55.00;4.70;75.60;;;;;;5054768;28;8777;-64
2022/01/11 05:06:02;;;;;;;;;61.75;49.75;4.40;77.20;;;;;;5054416;28;9506;-65
2022/01/11 05:08:28;;;;;;;;;65.75;50.25;4.40;77.30;;;;;;5054607;28;8799;-65
2022/01/11 05:10:54;;;;;;;;;68.25;53.25;4.20;79.50;;;;;;5054419;28;8851;-65
2022/01/11 05:13:20;;;;;;;;;70.50;53.50;4.30;78.60;;;;;;5054234;28;8814;-65
2022/01/11 05:15:47;;;;;;;;;61.50;48.75;4.10;79.60;;;;;;5054325;28;8778;-65
2022/01/11 05:18:13;;;;;;;;;49.00;42.00;3.90;81.60;;;;;;5054395;28;8891;-65
2022/01/11 05:20:40;;;;;;;;;53.75;47.00;3.80;82.90;;;;;;5054062;28;8756;-64
2022/01/11 05:23:06;;;;;;;;;62.75;52.50;4.00;81.90;;;;;;5054262;28;8786;-65
2022/01/11 05:25:32;;;;;;;;;62.50;53.50;4.00;81.40;;;;;;5054245;28;9451;-64
2022/01/11 05:27:59;;;;;;;;;65.25;50.50;4.00;81.00;;;;;;5054064;28;8867;-65
2022/01/11 05:30:26;;;;;;;;;72.75;56.50;4.30;79.90;;;;;;5054194;28;8782;-65
2022/01/11 05:32:52;;;;;;;;;85.25;66.50;4.60;77.60;;;;;;5054307;28;8802;-64
2022/01/11 05:35:20;;;;;;;;;81.00;63.25;4.90;75.10;;;;;;5054397;28;9457;-65
2022/01/11 05:37:47;;;;;;;;;73.75;56.50;4.70;74.90;;;;;;5054172;28;8818;-65
2022/01/11 05:40:14;;;;;;;;;60.25;50.00;4.10;78.30;;;;;;5054389;28;8779;-64
2022/01/11 05:42:41;;;;;;;;;52.00;44.50;3.90;80.90;;;;;;5053972;28;9475;-64
2022/01/11 05:45:09;;;;;;;;;56.50;45.50;3.70;80.90;;;;;;5054322;28;8747;-63
2022/01/11 05:47:35;;;;;;;;;62.25;48.75;3.60;82.70;;;;;;5054066;28;8789;-64
2022/01/11 05:50:04;;;;;;;;;71.75;55.50;3.50;83.70;;;;;;5054188;28;8917;-64
2022/01/11 05:52:30;;;;;;;;;62.75;50.00;3.70;83.10;;;;;;5053866;28;8924;-64
2022/01/11 05:54:56;;;;;;;;;65.50;51.50;3.80;83.10;;;;;;5054243;28;8763;-64
2022/01/11 05:57:21;;;;;;;;;66.75;52.75;4.00;80.70;;;;;;5053897;28;8771;-64
2022/01/11 05:59:48;;;;;;;;;56.25;47.00;4.00;78.50;;;;;;5052921;28;8849;-64
2022/01/11 06:02:14;;;;;;;;;54.75;46.75;3.50;82.10;;;;;;5053633;28;8778;-64
2022/01/11 06:04:40;;;;;;;;;39.50;29.75;3.60;81.90;;;;;;5054106;28;8783;-64
2022/01/11 06:07:06;;;;;;;;;54.25;49.25;3.60;81.40;;;;;;5053703;28;9426;-64
2022/01/11 06:09:32;;;;;;;;;62.00;47.00;3.50;81.20;;;;;;5054089;28;8767;-64
2022/01/11 06:11:57;;;;;;;;;61.25;45.00;3.60;81.40;;;;;;5053816;28;8775;-64
2022/01/11 06:14:24;;;;;;;;;56.75;46.00;3.30;83.10;;;;;;5053997;28;8790;-64
2022/01/11 06:16:50;;;;;;;;;66.00;52.25;3.20;85.80;;;;;;5053997;28;9457;-64
2022/01/11 06:19:15;;;;;;;;;55.00;48.00;3.80;81.70;;;;;;5054029;28;8774;-64
2022/01/11 06:21:41;;;;;;;;;73.25;55.75;4.00;79.10;;;;;;5053625;28;8771;-63
2022/01/11 06:24:10;;;;;;;;;70.00;53.25;4.20;77.10;;;;;;5053986;28;8779;-64
2022/01/11 06:26:36;;;;;;;;;77.75;60.50;4.20;77.70;;;;;;5053602;28;8783;-64
2022/01/11 06:29:02;;;;;;;;;75.50;60.50;4.20;76.20;;;;;;5053417;28;8806;-64
2022/01/11 06:31:30;;;;;;;;;63.25;51.75;4.20;76.90;;;;;;5053952;28;8801;-64
2022/01/11 06:33:56;;;;;;;;;73.75;57.75;3.90;79.60;;;;;;5057044;28;9461;-64
2022/01/11 06:36:22;;;;;;;;;77.00;62.50;4.00;77.50;;;;;;5057199;28;8759;-64
2022/01/11 06:38:48;;;;;;;;;68.50;54.75;4.00;79.50;;;;;;5057024;28;8811;-64
2022/01/11 06:41:15;;;;;;;;;70.00;58.75;4.20;78.00;;;;;;5057092;28;8771;-64
2022/01/11 06:43:41;;;;;;;;;66.75;54.00;4.40;75.60;;;;;;5057005;28;8779;-64
2022/01/11 06:46:07;;;;;;;;;73.25;58.00;4.30;76.10;;;;;;5057079;28;8928;-64
2022/01/11 06:48:33;;;;;;;;;66.25;56.00;4.20;76.60;;;;;;5057228;28;8787;-64
2022/01/11 06:51:00;;;;;;;;;71.00;56.25;4.00;78.10;;;;;;5056899;28;8767;-64
2022/01/11 06:53:28;;;;;;;;;72.25;55.25;3.80;79.40;;;;;;5056870;28;8884;-65
2022/01/11 06:55:54;;;;;;;;;83.25;64.25;4.00;78.00;;;;;;5057176;28;8779;-65
2022/01/11 06:58:22;;;;;;;;;81.00;64.75;3.90;77.10;;;;;;5057040;28;8817;-64
2022/01/11 07:00:49;;;;;;;;;93.50;73.00;4.20;76.60;;;;;;5057017;28;8774;-64
2022/01/11 07:03:15;;;;;;;;;76.75;61.25;3.90;77.90;;;;;;5056851;28;8877;-64
2022/01/11 07:05:42;;;;;;;;;77.00;60.50;3.80;80.50;;;;;;5056748;28;8865;-63
2022/01/11 07:08:09;;;;;;;;;70.75;57.00;4.10;77.00;;;;;;5056828;28;8799;-63
2022/01/11 07:10:35;;;;;;;;;71.50;56.00;4.00;77.30;;;;;;5056879;28;8861;-64
2022/01/11 07:13:02;;;;;;;;;91.50;71.00;3.80;78.70;;;;;;5056748;28;9442;-67
2022/01/11 07:15:28;;;;;;;;;87.50;69.50;3.80;78.20;;;;;;5056516;28;8759;-64
2022/01/11 07:17:54;;;;;;;;;78.75;61.00;3.80;79.30;;;;;;5056631;28;8774;-63
2022/01/11 07:20:20;;;;;;;;;83.50;63.75;3.60;79.60;;;;;;5056377;28;8876;-63
2022/01/11 07:22:46;;;;;;;;;84.25;65.25;3.90;79.00;;;;;;5056589;28;8774;-63
2022/01/11 07:25:12;;;;;;;;;81.00;62.75;4.00;77.30;;;;;;5056558;28;8785;-63
2022/01/11 07:27:37;;;;;;;;;83.75;65.25;3.90;78.00;;;;;;5056190;28;8804;-63
2022/01/11 07:30:05;;;;;;;;;78.25;61.25;3.80;80.40;;;;;;5056211;28;8779;-63
2022/01/11 07:32:31;;;;;;;;;82.75;64.75;3.70;80.70;;;;;;5056013;28;8825;-63
2022/01/11 07:34:59;;;;;;;;;83.50;64.25;3.90;80.00;;;;;;5056081;28;8876;-63
2022/01/11 07:37:25;;;;;;;;;86.00;66.50;4.40;75.90;;;;;;5056115;28;8818;-64
2022/01/11 07:39:51;;;;;;;;;73.50;59.25;4.30;76.80;;;;;;5056051;28;8779;-64
2022/01/11 07:42:17;;;;;;;;;85.50;67.75;4.70;73.70;;;;;;5056223;28;8902;-65
2022/01/11 07:44:44;;;;;;;;;85.25;66.00;4.70;73.50;;;;;;5055745;28;8786;-63
2022/01/11 07:47:10;;;;;;;;;83.00;62.50;5.00;72.20;;;;;;5055131;28;8783;-64
2022/01/11 07:49:35;;;;;;;;;84.25;64.75;4.60;73.10;;;;;;5055740;28;8828;-62
2022/01/11 07:52:02;;;;;;;;;83.25;64.00;3.90;77.50;;;;;;5055651;28;8767;-63
2022/01/11 07:54:28;;;;;;;;;75.25;58.50;4.20;78.20;;;;;;5055813;28;8803;-64
2022/01/11 07:56:54;;;;;;;;;84.50;66.00;4.50;75.00;;;;;;5055657;28;8856;-63
2022/01/11 07:59:19;;;;;;;;;74.00;57.00;4.60;75.30;;;;;;5055570;28;8803;-62
2022/01/11 08:01:45;;;;;;;;;77.25;61.75;4.50;74.40;;;;;;5055894;28;8774;-63
2022/01/11 08:04:11;;;;;;;;;75.00;61.50;4.70;73.70;;;;;;5055467;28;8793;-63
2022/01/11 08:06:37;;;;;;;;;85.50;69.00;5.00;71.80;;;;;;5055507;28;8775;-63
2022/01/11 08:09:03;;;;;;;;;94.50;71.00;4.90;72.40;;;;;;5055749;28;8826;-63
2022/01/11 08:11:29;;;;;;;;;94.00;73.00;5.00;71.60;;;;;;5055324;28;8857;-63
2022/01/11 08:13:56;;;;;;;;;99.25;83.25;4.60;72.90;;;;;;5055136;28;8802;-62
2022/01/11 08:16:22;;;;;;;;;91.00;72.00;4.40;74.30;;;;;;5055293;28;8772;-63
2022/01/11 08:18:48;;;;;;;;;90.75;70.50;4.30;74.50;;;;;;5055281;28;8743;-62
2022/01/11 08:21:14;;;;;;;;;88.50;66.25;4.50;74.60;;;;;;5055233;28;8798;-64
2022/01/11 08:23:39;;;;;;;;;80.50;64.25;4.70;73.70;;;;;;5054912;28;8795;-62
2022/01/11 08:26:05;;;;;;;;;81.50;65.50;4.80;72.20;;;;;;5055438;28;8862;-63
2022/01/11 08:28:32;;;;;;;;;81.75;62.75;4.70;73.20;;;;;;5054751;28;8795;-64
2022/01/11 08:30:59;;;;;;;;;82.50;65.75;4.60;73.70;;;;;;5054815;28;8838;-63
2022/01/11 08:33:25;;;;;;;;;85.25;65.25;4.10;76.60;;;;;;5054380;28;8818;-63
2022/01/11 08:35:52;;;;;;;;;83.75;60.50;4.20;77.40;;;;;;5054404;28;8898;-63
2022/01/11 08:38:18;;;;;;;;;81.75;63.25;4.30;76.20;;;;;;5054869;28;8811;-63
2022/01/11 08:40:44;;;;;;;;;76.75;62.25;4.60;74.80;;;;;;5054663;28;9470;-62
2022/01/11 08:43:10;;;;;;;;;71.75;59.00;4.40;75.40;;;;;;5054548;28;8798;-65
2022/01/11 08:45:37;;;;;;;;;83.50;65.75;4.50;75.20;;;;;;5054540;28;8786;-62
2022/01/11 08:48:03;;;;;;;;;76.75;58.50;4.80;74.20;;;;;;5054526;28;8874;-63
2022/01/11 08:50:30;;;;;;;;;69.25;57.00;4.90;72.10;;;;;;5054724;28;8784;-62
2022/01/11 08:52:57;;;;;;;;;74.00;58.75;4.60;74.00;;;;;;5054661;28;8807;-63
2022/01/11 08:55:24;;;;;;;;;77.75;59.00;4.60;74.60;;;;;;5054006;28;8778;-64
2022/01/11 08:57:50;;;;;;;;;66.00;54.50;4.50;73.70;;;;;;5054491;28;8794;-63
2022/01/11 09:00:18;;;;;;;;;79.50;61.00;4.60;74.40;;;;;;5054746;28;8755;-63
2022/01/11 09:02:50;;;;;;;;;80.00;61.75;4.30;76.20;;;;;;5054540;28;8786;-63
2022/01/11 09:05:17;;;;;;;;;81.00;63.25;4.40;76.30;;;;;;5054519;28;8829;-62
2022/01/11 09:07:43;;;;;;;;;80.25;63.00;4.20;78.10;;;;;;5054611;28;8803;-68
2022/01/11 09:10:10;;;;;;;;;84.25;65.25;4.30;76.00;;;;;;5054466;28;8752;-68
2022/01/11 09:12:36;;;;;;;;;83.00;65.00;3.80;78.00;;;;;;5054531;28;8798;-65
2022/01/11 09:15:05;;;;;;;;;81.75;62.50;3.40;82.40;;;;;;5054276;28;8763;-67
2022/01/11 09:17:31;;;;;;;;;72.75;58.00;3.50;83.20;;;;;;5054314;28;8781;-65
2022/01/11 09:19:57;;;;;;;;;68.00;55.50;3.70;80.40;;;;;;5054334;28;8735;-69
2022/01/11 09:22:23;;;;;;;;;72.50;55.75;3.40;82.40;;;;;;5054425;28;8798;-65
2022/01/11 09:24:49;;;;;;;;;64.25;50.50;3.50;83.90;;;;;;5054167;28;8755;-68
2022/01/11 09:27:15;;;;;;;;;68.00;55.25;3.90;80.50;;;;;;5054251;28;9555;-65
2022/01/11 09:29:41;;;;;;;;;68.75;52.75;3.60;78.70;;;;;;5054081;28;9056;-64
2022/01/11 09:32:08;;;;;;;;;65.75;55.75;3.10;82.10;;;;;;5054064;28;8759;-64
2022/01/11 09:34:37;;;;;;;;;72.25;56.25;3.30;82.40;;;;;;5054307;28;8795;-64
2022/01/11 09:37:03;;;;;;;;;69.50;58.75;3.40;80.40;;;;;;5054176;28;8826;-64
2022/01/11 09:39:29;;;;;;;;;65.75;49.75;3.40;80.50;;;;;;5053778;28;8895;-64
2022/01/11 09:41:58;;;;;;;;;72.00;57.00;3.30;82.10;;;;;;5054239;28;8882;-64
2022/01/11 09:44:25;;;;;;;;;72.00;57.00;3.30;80.80;;;;;;5054086;28;8813;-66
2022/01/11 09:46:51;;;;;;;;;72.25;57.25;3.40;81.80;;;;;;5054006;28;9429;-64
2022/01/11 09:49:17;;;;;;;;;67.25;51.00;3.30;81.40;;;;;;5054266;28;9429;-66
2022/01/11 09:51:43;;;;;;;;;77.00;58.25;3.00;83.00;;;;;;5053991;28;8798;-65
2022/01/11 09:54:09;;;;;;;;;76.00;58.75;3.20;82.10;;;;;;5053868;28;8933;-67
2022/01/11 09:56:37;;;;;;;;;82.50;59.00;3.10;83.80;;;;;;5053863;28;8774;-67
2022/01/11 09:59:03;;;;;;;;;78.25;61.50;3.00;84.70;;;;;;5053783;28;8814;-66
2022/01/11 10:01:29;;;;;;;;;67.25;55.25;3.50;82.50;;;;;;5053800;28;8874;-66
2022/01/11 10:03:57;;;;;;;;;64.25;53.50;4.00;77.80;;;;;;5053792;28;8869;-68
2022/01/11 10:06:24;;;;;;;;;75.25;61.00;3.80;76.40;;;;;;5053749;28;8771;-70
2022/01/11 10:08:50;;;;;;;;;81.00;63.00;3.40;79.20;;;;;;5057554;28;8933;-72
2022/01/11 10:11:36;;;;;;;;;74.00;58.00;3.40;83.00;;;;;;5057713;28;8893;-68
2022/01/11 10:14:29;;;;;;;;;79.75;62.75;3.50;81.80;;;;;;5057740;28;9425;-65
2022/01/11 10:17:18;;;;;;;;;71.50;55.25;4.00;78.10;;;;;;5053108;28;8767;-65
2022/01/11 10:20:06;;;;;;;;;69.75;58.00;3.60;79.00;;;;;;5056969;28;8768;-66
2022/01/11 10:22:32;;;;;;;;;75.75;59.50;4.00;77.30;;;;;;5044298;28;8783;-64
2022/01/11 10:25:00;;;;;;;;;76.25;61.50;4.40;74.40;;;;;;5053395;28;8759;-66
2022/01/11 10:27:32;;;;;;;;;72.50;55.00;4.50;73.30;;;;;;5055948;28;8771;-69
2022/01/11 10:30:03;;;;;;;;;72.00;57.25;4.60;73.30;;;;;;5055942;28;8786;-72
2022/01/11 10:32:47;;;;;;;;;76.00;60.00;4.40;73.20;;;;;;5055156;28;9425;-66
2022/01/11 10:35:20;;;;;;;;;72.00;58.00;4.60;73.10;;;;;;5055060;28;8766;-66
2022/01/11 10:37:48;;;;;;;;;77.50;60.75;4.40;72.60;;;;;;5054087;28;8798;-66
2022/01/11 10:40:20;;;;;;;;;67.25;57.00;4.30;72.90;;;;;;5055959;28;8844;-69
2022/01/11 10:42:58;;;;;;;;;73.50;59.25;3.70;77.50;;;;;;5055817;28;8818;-69
2022/01/11 10:45:29;;;;;;;;;77.50;63.00;3.90;76.30;;;;;;5054344;28;8782;-68
2022/01/11 10:48:00;;;;;;;;;65.75;53.75;4.00;76.90;;;;;;5053312;28;8793;-69
2022/01/11 10:50:37;;;;;;;;;66.00;53.00;4.10;74.30;;;;;;5055723;28;8778;-71
2022/01/11 10:53:24;;;;;;;;;67.75;57.00;3.60;78.60;;;;;;5053933;28;8831;-70
2022/01/11 10:55:52;;;;;;;;;70.50;56.50;3.80;77.20;;;;;;5055540;28;8840;-63
2022/01/11 10:58:18;;;;;;;;;73.00;57.50;3.80;78.40;;;;;;5056667;28;8877;-64
2022/01/11 11:00:47;;;;;;;;;80.00;62.75;4.10;75.70;;;;;;5056807;28;8856;-70
2022/01/11 11:03:17;;;;;;;;;82.00;61.25;4.10;76.00;;;;;;5056408;28;8771;-69
2022/01/11 11:05:58;;;;;;;;;72.50;59.75;4.10;75.70;;;;;;5056291;28;8771;-69
2022/01/11 11:08:39;;;;;;;;;67.00;56.00;4.00;75.30;;;;;;5056923;28;8791;-70
2022/01/11 11:11:15;;;;;;;;;74.75;60.25;3.60;78.60;;;;;;5056851;28;8793;-69
2022/01/11 11:13:46;;;;;;;;;71.75;56.75;3.90;78.90;;;;;;5055517;28;8917;-70
2022/01/11 11:16:18;;;;;;;;;73.00;60.00;3.80;78.20;;;;;;5056506;28;9408;-69
2022/01/11 11:18:49;;;;;;;;;70.75;57.00;4.10;77.20;;;;;;5055943;28;8751;-69
2022/01/11 11:21:27;;;;;;;;;74.75;58.50;4.20;75.80;;;;;;5056320;28;8771;-67
2022/01/11 11:23:56;;;;;;;;;73.25;58.00;4.50;74.60;;;;;;5056348;28;8972;-68
2022/01/11 11:26:29;;;;;;;;;78.25;61.00;5.10;71.50;;;;;;5056266;28;8840;-70
2022/01/11 11:28:55;;;;;;;;;70.50;57.25;5.00;71.90;;;;;;5056030;28;8856;-69
2022/01/11 11:31:21;;;;;;;;;76.00;58.75;5.00;71.10;;;;;;5056035;28;8821;-71
2022/01/11 11:33:50;;;;;;;;;69.00;55.00;5.30;69.80;;;;;;5055862;28;8802;-71
2022/01/11 11:36:16;;;;;;;;;62.75;51.50;5.40;69.00;;;;;;5056069;28;8771;-70
2022/01/11 11:38:52;;;;;;;;;68.25;55.75;5.40;69.00;;;;;;5056314;28;8917;-69
2022/01/11 11:41:19;;;;;;;;;63.75;50.75;5.40;68.40;;;;;;5056050;28;8781;-70
2022/01/11 11:44:12;;;;;;;;;61.75;49.00;4.80;70.60;;;;;;5055948;28;8775;-71
2022/01/11 11:46:52;;;;;;;;;61.00;47.00;4.70;72.00;;;;;;5055972;28;8806;-70
2022/01/11 11:49:56;;;;;;;;;63.00;52.00;3.80;76.50;;;;;;5055759;28;8759;-70
2022/01/11 11:52:41;;;;;;;;;69.25;54.75;4.10;76.90;;;;;;5055688;28;8901;-68
2022/01/11 11:55:20;;;;;;;;;64.25;52.75;4.70;73.40;;;;;;5056048;28;8893;-68
2022/01/11 11:57:48;;;;;;;;;67.00;55.25;5.00;70.70;;;;;;5055880;28;9507;-71
2022/01/11 12:00:19;;;;;;;;;60.00;50.00;5.10;70.30;;;;;;5055811;28;8882;-70
2022/01/11 12:02:48;;;;;;;;;72.00;58.25;4.90;69.70;;;;;;5055457;28;8770;-69
2022/01/11 12:05:36;;;;;;;;;70.50;54.50;4.90;70.90;;;;;;5055500;28;8791;-70
2022/01/11 12:08:27;;;;;;;;;54.25;47.00;5.30;69.70;;;;;;5055420;28;8787;-66
2022/01/11 12:10:56;;;;;;;;;73.00;59.00;5.30;68.90;;;;;;5055255;28;8791;-69
2022/01/11 12:13:46;;;;;;;;;83.50;67.25;5.30;69.30;;;;;;5055169;28;8875;-67
2022/01/11 12:16:24;;;;;;;;;77.25;61.50;5.50;69.10;;;;;;5055473;28;8767;-68
2022/01/11 12:18:53;;;;;;;;;67.25;51.75;5.50;68.00;;;;;;5055396;28;8895;-67
2022/01/11 12:21:22;;;;;;;;;72.00;58.75;5.40;68.40;;;;;;5055248;28;8754;-69
2022/01/11 12:23:53;;;;;;;;;63.00;49.00;5.40;68.40;;;;;;5055129;28;8763;-69
2022/01/11 12:26:27;;;;;;;;;62.50;53.00;5.30;68.70;;;;;;5055197;28;8759;-68
2022/01/11 12:29:07;;;;;;;;;55.50;45.00;4.70;71.00;;;;;;5053374;28;8799;-67
2022/01/11 12:31:51;;;;;;;;;59.50;46.00;4.50;73.60;;;;;;5054646;28;8759;-68
2022/01/11 12:34:17;;;;;;;;;59.50;48.00;4.70;72.50;;;;;;5054968;28;8822;-72
2022/01/11 12:36:53;;;;;;;;;65.25;51.50;3.80;77.00;;;;;;5055022;28;8966;-69
2022/01/11 12:39:20;;;;;;;;;68.50;57.00;4.00;78.70;;;;;;5055050;28;8822;-69
2022/01/11 12:41:48;;;;;;;;;65.50;54.25;4.30;75.30;;;;;;5055047;28;8787;-68
2022/01/11 12:47:11;;;;;;;;;75.50;60.50;4.70;73.50;;;;;;5054878;28;8763;-68
2022/01/11 12:49:44;;;;;;;;;74.00;58.00;4.90;71.90;;;;;;5055021;28;8759;-71
2022/01/11 12:52:17;;;;;;;;;70.25;55.00;4.80;72.20;;;;;;5054995;28;8896;-70
2022/01/11 12:54:47;;;;;;;;;66.00;52.25;4.60;73.60;;;;;;5054927;28;8806;-70
2022/01/11 12:57:23;;;;;;;;;65.75;54.50;4.90;72.60;;;;;;5054653;28;8767;-70
2022/01/11 12:59:53;;;;;;;;;68.25;55.50;4.40;73.20;;;;;;5054740;28;9571;-70
2022/01/11 13:02:24;;;;;;;;;61.00;51.50;4.30;73.50;;;;;;5054705;28;8747;-70